Main page
METAR-TAF:

METAR-TAF

Airports :

Quentin Aanenson Field

Luverne, Minnesota, United States

latitude: 43-37-16N, longitude: 096-12-58W, elevation: 1430 ft

Current weather observation

The report was made 10 minutes ago, at 22:16 UTC
Wind 13 mph from the South/Southwest
Temperature 25°F
Humidity 63%
Pressure 30.60 in. Hg
Visibility: 10 miles
Clear sky

METAR: KLYV 202216Z AUTO 21011KT 10SM CLR M04/M10 A3060 RMK AO2

Time: 16:26 (22:26 UTC)


TAF: missing

Weather observations and forecasts of more than 4000 airports (METAR and TAF reports).

The available stations are represented by yellow and red dots on the map.

Hover mouse over dot to see the name of the station.

Then click to see weather observations and forecasts.

To change the map : click on the green buttons with a black cross to zoom in, on the green button with a dash to zoom out, or on the green arrows for adjacent maps.


METAR-TAF: